Orlando, Florida
Traffic Map
Current Weather Conditions
Orlando, Florida
Clear
Clear
70°
Feels Like: 70°
Wind Chill: 70° Ceiling: Unl
Heat Index: 70° Visibility: 10mi
Dew Point: 63° Wind: 7mph
Humidity: 78% Direction: 140° (SE)
Pressure: 30.04in Gusts: 0mph
Raw Report DataKORL 050153Z 14006KT 10SM CLR 21/17 A3004 RMK AO2 SLP176 T02110172
Traffic Incident Summary
Active as of:
Severity:
Category:
InformationThere was an issue retrieving the traffic information for this location. Please try a different location or try again shortly.
Advertisements
Track Severe Weather on mobile